Sioux Gateway Col. Bud Day Field
KSUX : now visible

Airfield :











YOU CAN JOIN US ON...

 
LOGIN :

Register | Disclaimer

   EN    FR    IT 

 









Legend :    VFR   Marginal VFR   IFR   Intensive IFR   Very Intensive IFR
Visi :
Ceiling :
>= 8 km
>= 3000ft
5 to 8 km
1000 to 3000 ft
1500m to 5 km
500 to 1000 ft
800 to 1500m
200 to 500 ft
< 800m
< 200 ft
Symbols :   Thunderstorms  Fog  Heavy snow  Heavy precipitations  Wind > 20 kt






- Airport Elevation : 1098 ft
- IATA code : SUX


KSUX - Sioux Gateway Col. Bud Day Field

CURRENT METAR :
  • 032052Z 16014G23KT 10SM CLR 31/20 A2995 RMK AO2 SLP136 T03110200 58017

EXPIRED METARs :
  • 031952Z 15011G20KT 10SM CLR 31/20 A2998 RMK AO2 SLP146 T03060200
  • 031852Z 16010G21KT 10SM CLR 30/20 A2999 RMK AO2 SLP149 T03000200
  • 030452Z AUTO 11006KT 10SM CLR 21/17 A3002 RMK AO2 SLP157 T02060167
  • 031752Z 17010G17KT 130V190 10SM FEW032 29/20 A3001 RMK AO2 SLP154 T02890200 10289 20178 58011

TAF KSUX
Valid from the 03 at 18:00 until the 04 at 18:00 UTC


031720Z 0318/0418 16012G18KT P6SM SCT035
FM032200 16013G18KT P6SM SCT250
FM040500 16009KT P6SM SCT120 BKN200
FM040800 16010KT 6SM -SHRA VCTS BKN090CB
FM041000 16011KT P6SM SCT070 OVC100
KZMP FIR / North America



MET'MAP, your aeronautical weather chart ! - Copyright ORBIFLY December 2007 - Disclaimer

ORBIFLY MET'MAP TEAM :

Programming & Development : Alexandra Zaïnal
Original concept : Baudouin d'Aumeries
Technical & hardware support : Manuel Goepfert
Assistance : Marc-Olivier Méhu




SOURCES & CREDITS :

   NOAA       Earth
Advisory